Time;durP1;ratioP1;P1;durP2;ratioP2;P2;SDS_P1;SDS_P2;PMS_P1;PMS_P2;Temp;Humidity;BMP_temperature;BMP_pressure;BME280_temperature;BME280_humidity;BME280_pressure;Samples;Min_cycle;Max_cycle;Signal;HPM_P1;HPM_P2
2022/07/11 00:02:12;;;;;;;155.37;147.83;;;;;;;15.59;69.34;97375.34;5073552;28;20558;-62
2022/07/11 00:04:38;;;;;;;151.43;144.10;;;;;;;15.51;69.69;97375.72;5074647;28;20162;-62
2022/07/11 00:07:04;;;;;;;162.03;154.30;;;;;;;15.66;69.47;97375.97;5074344;28;20613;-62
2022/07/11 00:09:31;;;;;;;151.27;144.07;;;;;;;15.78;68.70;97366.06;5074867;28;20185;-62
2022/07/11 00:11:57;;;;;;;146.20;139.07;;;;;;;15.85;68.95;97368.53;5074534;28;20205;-62
2022/07/11 00:14:23;;;;;;;142.27;135.40;;;;;;;15.66;69.72;97373.34;5074627;28;20193;-62
2022/07/11 00:16:49;;;;;;;145.47;138.47;;;;;;;15.75;69.68;97363.94;5073948;28;20177;-62
2022/07/11 00:19:15;;;;;;;133.43;126.73;;;;;;;15.77;69.77;97359.22;5056781;28;20268;-62
2022/07/11 00:21:41;;;;;;;126.40;120.23;;;;;;;15.76;69.78;97355.75;5074463;28;20339;-63
2022/07/11 00:24:07;;;;;;;116.20;110.43;;;;;;;15.65;70.27;97361.16;5056734;28;20192;-63
2022/07/11 00:26:33;;;;;;;91.27;86.67;;;;;;;15.77;69.90;97361.84;5073568;28;20189;-62
2022/07/11 00:29:00;;;;;;;73.43;69.70;;;;;;;15.65;70.42;97354.03;5074725;28;20173;-64
2022/07/11 00:31:25;;;;;;;51.23;48.60;;;;;;;15.57;70.76;97354.44;5074149;28;20680;-61
2022/07/11 00:33:51;;;;;;;38.80;36.70;;;;;;;15.59;70.70;97354.19;5074161;28;20213;-62
2022/07/11 00:36:16;;;;;;;29.33;27.83;;;;;;;15.61;70.67;97354.75;5074320;28;20217;-62
2022/07/11 00:38:42;;;;;;;29.33;27.77;;;;;;;15.48;71.61;97350.59;5074307;28;20617;-62
2022/07/11 00:41:07;;;;;;;31.07;29.47;;;;;;;15.44;71.85;97346.00;5073965;28;20189;-62
2022/07/11 00:43:38;;;;;;;39.03;36.97;;;;;;;15.42;72.46;97345.47;5071781;28;20225;-62
2022/07/11 00:46:05;;;;;;;50.07;47.47;;;;;;;15.39;72.86;97344.91;5074176;28;20189;-62
2022/07/11 00:48:31;;;;;;;94.23;89.33;;;;;;;15.48;72.72;97347.97;5073249;28;20212;-62
2022/07/11 00:50:57;;;;;;;165.60;156.60;;;;;;;15.32;73.37;97344.28;5074403;28;20530;-62
2022/07/11 00:53:23;;;;;;;264.60;250.23;;;;;;;15.36;73.57;97353.34;5073714;28;20284;-62
2022/07/11 00:55:52;;;;;;;332.87;314.77;;;;;;;15.29;74.01;97339.50;5056178;28;20268;-62
2022/07/11 00:58:18;;;;;;;341.83;323.27;;;;;;;15.41;73.78;97334.09;5058295;28;20169;-62
2022/07/11 01:00:44;;;;;;;279.10;264.50;;;;;;;15.25;74.54;97335.75;5074068;28;20507;-62
2022/07/11 01:03:09;;;;;;;192.33;182.50;;;;;;;15.28;74.80;97335.25;5072563;28;20296;-60
2022/07/11 01:05:35;;;;;;;99.53;94.33;;;;;;;15.23;75.06;97335.19;5073601;28;20177;-62
2022/07/11 01:08:01;;;;;;;99.87;94.53;;;;;;;15.14;75.64;97334.00;5075043;28;20177;-62
2022/07/11 01:10:26;;;;;;;146.50;138.67;;;;;;;15.08;76.31;97334.97;5075618;28;20189;-61
2022/07/11 01:12:54;;;;;;;142.13;134.83;;;;;;;15.21;75.81;97331.19;5060685;28;20226;-61
2022/07/11 01:15:19;;;;;;;114.70;108.80;;;;;;;15.31;75.59;97331.34;5074783;28;20180;-62
2022/07/11 01:17:45;;;;;;;77.60;73.53;;;;;;;15.20;76.50;97334.88;5073638;28;20203;-62
2022/07/11 01:20:11;;;;;;;62.70;59.40;;;;;;;15.08;77.19;97334.16;5074247;28;20626;-62
2022/07/11 01:22:43;;;;;;;48.63;46.13;;;;;;;15.14;77.06;97333.19;5073231;28;20201;-62
2022/07/11 01:25:09;;;;;;;50.03;47.37;;;;;;;15.08;77.53;97328.88;5073446;28;20209;-62
2022/07/11 01:27:36;;;;;;;47.50;45.00;;;;;;;15.26;76.70;97332.06;5054890;28;20282;-62
2022/07/11 01:30:04;;;;;;;51.27;48.67;;;;;;;15.32;76.71;97332.94;5072683;28;20193;-62
2022/07/11 01:32:30;;;;;;;49.30;46.63;;;;;;;15.23;77.42;97334.38;5073202;28;20226;-62
2022/07/11 01:34:55;;;;;;;49.43;46.83;;;;;;;15.26;77.52;97328.63;5072169;28;20177;-62
2022/07/11 01:37:20;;;;;;;48.57;46.00;;;;;;;15.16;78.17;97323.16;5073003;28;20225;-62
2022/07/11 01:39:46;;;;;;;45.60;43.23;;;;;;;15.09;78.74;97320.72;5072856;28;20326;-62
2022/07/11 01:42:42;;;;;;;45.33;42.93;;;;;;;14.97;79.25;97320.81;5073243;28;20232;-62
2022/07/11 01:45:09;;;;;;;48.97;46.37;;;;;;;14.95;79.39;97320.25;5070865;28;20232;-62
2022/07/11 01:47:35;;;;;;;39.80;37.73;;;;;;;15.08;79.07;97316.47;5072494;28;20848;-62
2022/07/11 01:50:01;;;;;;;43.43;41.13;;;;;;;15.09;78.91;97318.09;5072769;28;20193;-62
2022/07/11 01:52:28;;;;;;;38.40;36.43;;;;;;;15.09;79.24;97318.09;5072380;28;20216;-61
2022/07/11 01:54:53;;;;;;;37.47;35.43;;;;;;;15.08;78.95;97321.75;5072345;28;20173;-61
2022/07/11 01:57:19;;;;;;;36.00;34.13;;;;;;;15.14;78.80;97325.28;5072652;28;20185;-61
2022/07/11 01:59:44;;;;;;;34.53;32.70;;;;;;;15.16;78.90;97328.44;5073008;28;20695;-58
2022/07/11 02:02:10;;;;;;;34.00;32.13;;;;;;;15.11;78.99;97318.63;5072505;28;20681;-62
2022/07/11 02:04:36;;;;;;;33.30;31.53;;;;;;;15.08;79.27;97311.19;5068559;28;20189;-63
2022/07/11 02:07:01;;;;;;;33.03;31.33;;;;;;;15.02;80.15;97314.00;5071856;28;20634;-60
2022/07/11 02:09:26;;;;;;;34.10;32.20;;;;;;;15.09;79.67;97319.91;5072717;28;20181;-61
2022/07/11 02:11:52;;;;;;;36.63;34.70;;;;;;;15.07;79.90;97320.16;5072262;28;20216;-61
2022/07/11 02:14:17;;;;;;;35.57;33.70;;;;;;;15.10;79.92;97314.38;5071737;28;20316;-61
2022/07/11 02:16:43;;;;;;;30.47;28.87;;;;;;;15.24;79.31;97309.56;5054134;28;20181;-60
2022/07/11 02:19:10;;;;;;;30.67;28.97;;;;;;;15.31;79.38;97313.66;5072600;28;20264;-61
2022/07/11 02:21:36;;;;;;;31.60;29.87;;;;;;;15.34;79.12;97313.16;5071559;28;20266;-61
2022/07/11 02:24:02;;;;;;;38.23;36.17;;;;;;;15.15;79.93;97316.31;5071897;28;20557;-62
2022/07/11 02:26:28;;;;;;;32.07;30.37;;;;;;;15.04;80.60;97312.72;5071994;28;20664;-60
2022/07/11 02:28:53;;;;;;;32.00;30.30;;;;;;;15.10;80.82;97313.59;5072438;28;20182;-59
2022/07/11 02:31:19;;;;;;;30.13;28.43;;;;;;;15.08;81.04;97313.84;5072231;28;20287;-61
2022/07/11 02:33:45;;;;;;;28.87;27.23;;;;;;;14.79;82.56;97317.59;5072001;28;20399;-60
2022/07/11 02:36:11;;;;;;;30.67;29.10;;;;;;;14.81;82.33;97308.41;5072366;28;20472;-61
2022/07/11 02:38:36;;;;;;;29.53;27.77;;;;;;;14.88;82.67;97311.69;5072532;28;20227;-63
2022/07/11 02:41:02;;;;;;;28.67;27.17;;;;;;;15.06;81.92;97321.19;5072006;28;20181;-63
2022/07/11 02:43:27;;;;;;;30.90;29.20;;;;;;;15.09;81.92;97314.63;5069642;28;20236;-62
2022/07/11 02:45:53;;;;;;;31.97;30.27;;;;;;;15.09;81.80;97309.34;5071671;28;20181;-60
2022/07/11 02:48:20;;;;;;;31.27;29.53;;;;;;;15.32;80.63;97303.88;5072260;28;20178;-61
2022/07/11 02:50:46;;;;;;;32.30;30.60;;;;;;;15.24;81.27;97310.38;5071704;28;20193;-61
2022/07/11 02:53:11;;;;;;;34.33;32.43;;;;;;;15.21;81.67;97312.72;5071529;28;20262;-62
2022/07/11 02:55:37;;;;;;;37.77;35.77;;;;;;;15.18;81.89;97315.81;5071766;28;20234;-61
2022/07/11 02:58:02;;;;;;;36.37;34.43;;;;;;;15.18;82.21;97316.63;5071438;28;20204;-61
2022/07/11 03:00:28;;;;;;;36.87;34.87;;;;;;;15.25;81.71;97308.53;5071175;28;20546;-60
2022/07/11 03:02:54;;;;;;;37.93;35.77;;;;;;;15.28;81.79;97306.19;5071171;28;20316;-60
2022/07/11 03:05:19;;;;;;;38.40;36.30;;;;;;;15.35;81.42;97316.59;5071421;28;20195;-61
2022/07/11 03:07:45;;;;;;;38.60;36.60;;;;;;;15.25;81.78;97313.81;5071277;28;20182;-63
2022/07/11 03:10:10;;;;;;;38.70;36.63;;;;;;;15.19;82.09;97310.31;5071456;28;20673;-63
2022/07/11 03:12:36;;;;;;;42.37;40.13;;;;;;;15.37;81.38;97320.59;5071434;28;20249;-61
2022/07/11 03:15:02;;;;;;;43.37;40.93;;;;;;;15.39;81.50;97317.69;5071217;28;20189;-60
2022/07/11 03:17:29;;;;;;;44.53;42.20;;;;;;;15.33;81.81;97316.81;5071998;28;20180;-62
2022/07/11 03:19:54;;;;;;;49.70;47.10;;;;;;;15.39;81.50;97315.84;5071930;28;20665;-61
2022/07/11 03:22:20;;;;;;;53.20;50.30;;;;;;;15.54;80.68;97317.16;5071562;28;20205;-62
2022/07/11 03:24:45;;;;;;;46.13;43.60;;;;;;;15.44;81.35;97320.41;5053042;28;20581;-62
2022/07/11 03:27:11;;;;;;;54.03;51.13;;;;;;;15.25;82.13;97311.97;5071469;28;20184;-61
2022/07/11 03:29:36;;;;;;;59.93;56.70;;;;;;;15.32;82.55;97314.44;5071506;28;20265;-59
2022/07/11 03:32:02;;;;;;;56.30;53.27;;;;;;;15.31;82.53;97308.38;5071849;28;20285;-55
2022/07/11 03:34:28;;;;;;;60.37;57.17;;;;;;;15.41;82.29;97315.63;5071791;28;20227;-59
2022/07/11 03:36:54;;;;;;;58.03;54.97;;;;;;;15.39;82.44;97310.56;5071504;28;20231;-61
2022/07/11 03:39:21;;;;;;;61.73;58.13;;;;;;;15.41;82.39;97312.97;5072068;28;20657;-60
2022/07/11 03:41:47;;;;;;;72.03;67.93;;;;;;;15.49;82.36;97314.41;5070983;28;20278;-58
2022/07/11 03:44:12;;;;;;;66.47;62.67;;;;;;;15.40;82.73;97317.47;5068901;28;20704;-57
2022/07/11 03:46:38;;;;;;;76.77;72.53;;;;;;;15.39;83.14;97317.69;5053384;28;20588;-59
2022/07/11 03:49:04;;;;;;;76.27;72.10;;;;;;;15.39;83.07;97321.13;5071356;28;20209;-61
2022/07/11 03:51:30;;;;;;;95.07;90.00;;;;;;;15.46;83.11;97323.59;5069875;28;20617;-61
2022/07/11 03:53:55;;;;;;;104.43;98.90;;;;;;;15.39;83.63;97321.13;5071156;28;20193;-61
2022/07/11 03:56:22;;;;;;;104.90;99.13;;;;;;;15.38;83.83;97313.44;5071439;28;20185;-61
2022/07/11 03:58:49;;;;;;;99.40;93.90;;;;;;;15.31;84.38;97318.13;5071345;28;20177;-59
2022/07/11 04:01:14;;;;;;;102.27;96.83;;;;;;;15.45;83.91;97314.09;5071051;28;20173;-60
2022/07/11 04:03:40;;;;;;;94.87;89.80;;;;;;;15.49;83.18;97309.91;5070295;28;20264;-61
2022/07/11 04:06:05;;;;;;;81.37;76.77;;;;;;;15.50;83.47;97311.50;5070668;28;20541;-60
2022/07/11 04:08:31;;;;;;;92.53;87.67;;;;;;;15.35;84.15;97306.81;5070676;28;20181;-61
2022/07/11 04:10:56;;;;;;;89.73;84.83;;;;;;;15.27;84.94;97304.59;5072862;28;20276;-61
2022/07/11 04:13:22;;;;;;;78.47;74.27;;;;;;;15.45;84.02;97308.78;5074675;28;20227;-65
2022/07/11 04:15:47;;;;;;;84.07;79.63;;;;;;;15.49;83.99;97309.13;5074321;28;20235;-60
2022/07/11 04:18:13;;;;;;;71.27;67.33;;;;;;;15.59;83.67;97304.00;5074555;28;20232;-60
2022/07/11 04:20:40;;;;;;;67.80;64.13;;;;;;;15.60;83.57;97316.16;5074858;28;20177;-62
2022/07/11 04:23:05;;;;;;;64.70;61.30;;;;;;;15.55;83.70;97308.94;5074185;28;20205;-60
2022/07/11 04:25:31;;;;;;;69.93;66.13;;;;;;;15.48;84.31;97321.53;5074408;28;20177;-61
2022/07/11 04:27:56;;;;;;;64.83;61.23;;;;;;;15.60;83.70;97308.25;5074191;28;20250;-62
2022/07/11 04:30:21;;;;;;;58.07;54.77;;;;;;;15.34;85.34;97310.50;5073788;28;20196;-60
2022/07/11 04:32:48;;;;;;;76.87;72.67;;;;;;;15.57;84.46;97319.28;5074230;28;20350;-59
2022/07/11 04:35:14;;;;;;;67.97;64.20;;;;;;;15.35;85.30;97316.59;5074341;28;20182;-62
2022/07/11 04:37:40;;;;;;;71.97;68.07;;;;;;;15.40;85.30;97312.19;5073238;28;20185;-60
2022/07/11 04:40:06;;;;;;;79.77;74.90;;;;;;;15.09;87.19;97314.63;5074442;28;20185;-61
2022/07/11 04:42:31;;;;;;;83.17;78.40;;;;;;;15.39;86.23;97309.78;5073954;28;20205;-62
2022/07/11 04:44:56;;;;;;;77.17;72.93;;;;;;;15.27;86.31;97314.34;5072060;28;20606;-61
2022/07/11 04:47:22;;;;;;;56.90;53.70;;;;;;;15.23;85.61;97315.88;5074583;28;20178;-61
2022/07/11 04:49:50;;;;;;;46.33;43.70;;;;;;;15.32;84.69;97311.81;5073737;28;20181;-61
2022/07/11 04:52:16;;;;;;;55.90;52.83;;;;;;;15.60;82.70;97314.34;5074036;28;20201;-61
2022/07/11 04:54:41;;;;;;;64.47;60.97;;;;;;;15.98;81.28;97310.00;5073864;28;20178;-61
2022/07/11 04:57:07;;;;;;;59.07;55.83;;;;;;;16.13;79.62;97312.81;5073637;28;20219;-61
2022/07/11 04:59:32;;;;;;;46.53;44.00;;;;;;;16.15;79.58;97313.38;5073896;28;20173;-61
2022/07/11 05:01:58;;;;;;;41.30;39.07;;;;;;;16.08;79.52;97308.28;5073429;28;20216;-61
2022/07/11 05:04:23;;;;;;;32.10;30.27;;;;;;;16.34;78.53;97309.31;5074315;28;20620;-62
2022/07/11 05:06:50;;;;;;;35.73;33.83;;;;;;;15.91;80.65;97318.13;5055532;28;20618;-61
2022/07/11 05:09:15;;;;;;;53.57;50.50;;;;;;;15.92;80.33;97319.72;5073902;28;20181;-61
2022/07/11 05:11:41;;;;;;;107.57;101.83;;;;;;;15.78;81.78;97321.13;5073729;28;20680;-63
2022/07/11 05:14:06;;;;;;;192.57;182.23;;;;;;;15.85;82.46;97324.41;5073016;28;20220;-61
2022/07/11 05:16:32;;;;;;;97.43;91.97;;;;;;;16.13;81.31;97320.75;5073620;28;20189;-61
2022/07/11 05:18:57;;;;;;;82.00;77.67;;;;;;;16.56;79.60;97319.84;5073287;28;20173;-60
2022/07/11 05:21:23;;;;;;;153.07;144.97;;;;;;;16.68;78.86;97319.72;5072884;28;20201;-60
2022/07/11 05:23:50;;;;;;;251.73;238.03;;;;;;;16.66;78.62;97317.34;5072186;28;20169;-59
2022/07/11 05:26:15;;;;;;;271.07;256.40;;;;;;;16.81;77.65;97320.09;5073734;28;20166;-58
2022/07/11 05:28:41;;;;;;;232.60;220.23;;;;;;;16.77;78.69;97316.38;5073227;28;20537;-59
2022/07/11 05:31:07;;;;;;;266.53;252.40;;;;;;;17.09;77.31;97318.19;5073455;28;20690;-58
2022/07/11 05:33:34;;;;;;;212.50;201.03;;;;;;;17.18;76.37;97320.09;5073282;28;20209;-60
2022/07/11 05:35:59;;;;;;;159.13;150.60;;;;;;;17.05;76.99;97323.19;5073157;28;20193;-58
2022/07/11 05:38:25;;;;;;;116.57;110.17;;;;;;;17.35;76.16;97320.72;5073481;28;20231;-62
2022/07/11 05:40:50;;;;;;;166.03;157.67;;;;;;;17.12;77.42;97333.56;5073136;28;20184;-61
2022/07/11 05:43:24;;;;;;;160.23;152.43;;;;;;;17.59;75.13;97329.09;5072638;28;20343;-62
2022/07/11 05:45:50;;;;;;;117.70;111.90;;;;;;;17.38;75.20;97335.34;5071928;28;20582;-61
2022/07/11 05:48:15;;;;;;;120.30;114.30;;;;;;;17.41;75.35;97338.25;5073097;28;20177;-61
2022/07/11 05:50:42;;;;;;;178.13;169.03;;;;;;;17.68;74.38;97338.16;5073063;28;20170;-60
2022/07/11 05:53:09;;;;;;;203.57;193.10;;;;;;;17.52;75.47;97338.31;5074953;28;20296;-61
2022/07/11 05:55:34;;;;;;;212.33;201.60;;;;;;;17.05;77.89;97337.22;5080944;28;20185;-60
2022/07/11 05:58:00;;;;;;;176.97;168.20;;;;;;;16.42;81.14;97340.63;5077297;28;20172;-60
2022/07/11 06:00:27;;;;;;;117.43;111.57;;;;;;;16.08;83.02;97341.84;5079617;28;20169;-62
2022/07/11 06:02:52;;;;;;;79.50;75.57;;;;;;;16.92;79.84;97337.66;5072937;28;20193;-61
2022/07/11 06:05:18;;;;;;;88.10;83.77;;;;;;;17.12;78.82;97338.84;5072447;28;20177;-61
2022/07/11 06:10:31;;;;;;;195.30;185.55;;;;;;;16.92;78.69;97335.03;5065837;28;20719;-61
2022/07/11 06:12:58;;;;;;;202.52;192.45;;;;;;;16.94;79.22;97340.84;5068267;28;20266;-61
2022/07/11 06:15:24;;;;;;;175.90;167.07;;;;;;;17.17;77.47;97337.03;5071486;28;20173;-61
2022/07/11 06:17:49;;;;;;;227.30;215.40;;;;;;;17.35;76.18;97341.13;5071512;28;20193;-61
2022/07/11 06:20:15;;;;;;;222.30;211.10;;;;;;;17.10;76.79;97346.28;5080445;28;20169;-60
2022/07/11 06:22:40;;;;;;;230.23;218.53;;;;;;;17.03;77.35;97344.63;5079453;28;20220;-62
2022/07/11 06:25:44;;;;;;;208.30;197.80;;;;;;;16.61;78.96;97349.81;5070595;28;20189;-61
2022/07/11 06:28:09;;;;;;;180.63;171.57;;;;;;;17.02;76.86;97348.34;5071327;28;20169;-61
2022/07/11 06:30:36;;;;;;;151.63;143.83;;;;;;;16.92;77.99;97339.50;5071044;28;20223;-60
2022/07/11 06:33:03;;;;;;;160.53;152.30;;;;;;;17.37;75.47;97342.50;5053974;28;20288;-61
2022/07/11 06:35:28;;;;;;;129.90;122.97;;;;;;;17.11;76.60;97348.66;5071303;28;20668;-61
2022/07/11 06:37:56;;;;;;;112.07;106.27;;;;;;;16.94;77.56;97351.44;5072102;28;20193;-61
2022/07/11 06:40:23;;;;;;;110.40;104.60;;;;;;;17.13;76.95;97351.06;5071573;28;20238;-59
2022/07/11 06:45:13;;;;;;;178.93;169.70;;;;;;;17.23;77.82;97357.22;5069452;28;20571;-61
2022/07/11 06:47:39;;;;;;;119.93;113.40;;;;;;;17.44;75.24;97343.03;5053477;28;20447;-61
2022/07/11 06:50:06;;;;;;;91.07;86.15;;;;;;;16.58;79.95;97347.66;5071424;28;20564;-59
2022/07/11 06:52:32;;;;;;;91.03;86.07;;;;;;;17.14;77.34;97352.66;5071611;28;20212;-61
2022/07/11 06:54:58;;;;;;;84.80;80.23;;;;;;;18.02;73.91;97346.53;5070621;28;20177;-61
2022/07/11 06:57:24;;;;;;;68.43;64.40;;;;;;;17.94;73.34;97351.56;5072082;28;20260;-61
2022/07/11 06:59:51;;;;;;;93.33;88.43;;;;;;;18.42;71.99;97351.16;5071158;28;20248;-60
2022/07/11 07:02:17;;;;;;;110.32;104.32;;;;;;;19.03;69.09;97353.91;5070990;28;20232;-61
2022/07/11 07:04:42;;;;;;;130.75;123.75;;;;;;;19.29;67.94;97354.66;5071468;28;20519;-61
2022/07/11 07:07:07;;;;;;;94.00;89.07;;;;;;;19.40;67.38;97353.59;5070843;28;20560;-61
2022/07/11 07:09:33;;;;;;;116.95;110.75;;;;;;;18.57;70.44;97345.09;5071186;28;20223;-61
2022/07/11 07:11:58;;;;;;;101.15;95.55;;;;;;;18.99;68.95;97345.69;5070550;28;20204;-61
2022/07/11 07:14:24;;;;;;;106.60;100.97;;;;;;;18.56;70.42;97346.16;5052720;28;20206;-61
2022/07/11 07:16:50;;;;;;;186.10;175.82;;;;;;;19.38;67.66;97350.44;5071309;28;20197;-61
2022/07/11 07:19:15;;;;;;;319.58;302.10;;;;;;;18.96;69.18;97351.50;5071007;28;20256;-61
2022/07/11 07:21:41;;;;;;;278.50;263.33;;;;;;;19.79;66.06;97349.28;5090997;28;20196;-61
2022/07/11 07:24:06;;;;;;;148.15;140.00;;;;;;;19.57;65.88;97346.16;5077217;28;20161;-61
2022/07/11 07:26:32;;;;;;;138.98;131.43;;;;;;;20.56;62.04;97342.53;5091649;28;20168;-61
2022/07/11 07:28:59;;;;;;;116.05;109.90;;;;;;;20.86;61.21;97349.50;5078106;28;20227;-61
2022/07/11 07:31:24;;;;;;;81.82;77.47;;;;;;;21.09;60.67;97340.81;5053632;28;20250;-60
2022/07/11 07:33:50;;;;;;;67.40;63.75;;;;;;;20.68;61.26;97348.31;5071217;28;20300;-61
2022/07/11 07:36:16;;;;;;;54.33;51.30;;;;;;;21.04;59.63;97340.06;5071277;28;20188;-63
2022/07/11 07:38:43;;;;;;;39.10;37.05;;;;;;;21.13;59.40;97341.81;5052829;28;20623;-63
2022/07/11 07:41:10;;;;;;;50.83;48.15;;;;;;;21.62;59.01;97343.53;5070976;28;20636;-61
2022/07/11 07:43:36;;;;;;;51.35;48.60;;;;;;;21.61;58.45;97338.47;5067977;28;20232;-61
2022/07/11 07:46:01;;;;;;;44.03;41.72;;;;;;;21.15;60.20;97341.59;5073175;28;20173;-62
2022/07/11 07:48:27;;;;;;;42.30;39.97;;;;;;;21.42;59.54;97341.06;5075112;28;20645;-61
2022/07/11 07:50:53;;;;;;;32.58;30.85;;;;;;;20.45;61.32;97341.00;5074850;28;20184;-61
2022/07/11 07:53:19;;;;;;;30.35;28.70;;;;;;;21.28;59.59;97340.13;5074821;28;20306;-62
2022/07/11 07:55:44;;;;;;;37.72;35.60;;;;;;;20.06;63.55;97342.81;5074452;28;20611;-62
2022/07/11 07:58:10;;;;;;;29.88;28.38;;;;;;;20.22;62.80;97337.13;5074822;28;20652;-59
2022/07/11 08:03:21;;;;;;;39.55;37.22;;;;;;;21.61;58.08;97328.59;5074517;28;20183;-61
2022/07/11 08:05:47;;;;;;;29.80;28.27;;;;;;;21.25;57.99;97338.03;5073742;28;20181;-60
2022/07/11 08:08:12;;;;;;;23.48;22.27;;;;;;;20.07;62.13;97323.88;5074265;28;20177;-61
2022/07/11 08:10:39;;;;;;;25.20;23.85;;;;;;;21.14;60.23;97323.97;5073484;28;20521;-60
2022/07/11 08:13:04;;;;;;;26.17;24.73;;;;;;;20.88;59.41;97327.94;5074039;28;20205;-62
2022/07/11 08:15:30;;;;;;;26.63;25.23;;;;;;;21.02;59.32;97324.34;5073678;28;20177;-64
2022/07/11 08:17:55;;;;;;;46.17;43.67;;;;;;;20.69;60.11;97336.59;5074106;28;20575;-59
2022/07/11 08:20:21;;;;;;;84.07;79.78;;;;;;;21.58;57.46;97335.28;5063971;28;20176;-58
2022/07/11 08:22:47;;;;;;;112.57;106.75;;;;;;;21.17;57.56;97333.31;5095804;28;20192;-61
2022/07/11 08:25:12;;;;;;;98.60;93.35;;;;;;;21.55;56.03;97330.53;5095292;28;20233;-60
2022/07/11 08:27:38;;;;;;;154.27;146.57;;;;;;;21.27;55.33;97335.88;5094926;28;20161;-59
2022/07/11 08:30:07;;;;;;;119.32;113.32;;;;;;;21.60;55.61;97335.00;5094639;28;20157;-60
2022/07/11 08:32:33;;;;;;;221.68;210.75;;;;;;;20.62;55.77;97335.28;5094702;28;20200;-62
2022/07/11 08:34:59;;;;;;;161.02;152.70;;;;;;;21.40;54.05;97328.00;5094605;28;20545;-61
2022/07/11 08:37:25;;;;;;;120.38;113.90;;;;;;;21.20;54.90;97327.41;5079992;28;20188;-62
2022/07/11 08:39:50;;;;;;;120.68;114.50;;;;;;;21.01;55.01;97324.63;5074438;28;20223;-60
2022/07/11 08:42:19;;;;;;;117.03;111.13;;;;;;;21.45;53.59;97317.31;5073888;28;20208;-61
2022/07/11 08:44:45;;;;;;;91.55;86.90;;;;;;;22.23;51.46;97308.91;5073436;28;20224;-61
2022/07/11 08:47:11;;;;;;;82.72;78.55;;;;;;;22.77;50.46;97308.41;5094323;28;20603;-62
2022/07/11 08:49:39;;;;;;;105.97;100.90;;;;;;;23.47;48.48;97313.63;5083868;28;20264;-60
2022/07/11 08:52:06;;;;;;;392.33;371.95;;;;;;;22.47;50.69;97310.69;5072846;28;20665;-61
2022/07/11 08:54:33;;;;;;;245.93;233.80;;;;;;;21.20;54.40;97314.06;5073693;28;20213;-61
2022/07/11 08:57:01;;;;;;;513.22;485.75;;;;;;;20.60;54.03;97305.50;5072334;28;20267;-61
2022/07/11 08:59:30;;;;;;;54.42;51.50;;;;;;;21.41;53.56;97305.59;5086277;28;20161;-60
2022/07/11 09:02:01;;;;;;;53.55;50.75;;;;;;;20.53;54.12;97313.78;5074928;28;20232;-60
2022/07/11 09:04:28;;;;;;;41.10;39.05;;;;;;;21.71;52.55;97299.13;5093972;28;20176;-62
2022/07/11 09:06:53;;;;;;;63.90;60.78;;;;;;;22.55;49.47;97299.38;5080849;28;20181;-61
2022/07/11 09:09:19;;;;;;;256.65;243.57;;;;;;;21.43;51.61;97319.44;5073342;28;20175;-63
2022/07/11 09:11:52;;;;;;;255.88;242.88;;;;;;;20.83;52.93;97318.09;5073364;28;20201;-59
2022/07/11 09:14:31;;;;;;;125.95;119.82;;;;;;;21.70;50.71;97310.88;5072549;28;20216;-60
2022/07/11 09:17:04;;;;;;;145.38;137.75;;;;;;;22.22;49.87;97301.97;5072743;28;20180;-62
2022/07/11 09:19:32;;;;;;;411.13;389.95;;;;;;;21.80;50.97;97307.28;5073364;28;20189;-62
2022/07/11 09:27:52;;;;;;;444.08;421.20;;;;;;;22.77;47.94;97303.03;5084710;28;20668;-62
2022/07/11 09:30:19;;;;;;;408.25;387.83;;;;;;;22.97;47.51;97306.47;5073400;28;20173;-60
2022/07/11 09:32:58;;;;;;;200.68;190.20;;;;;;;21.29;50.82;97310.50;5073210;28;20729;-62
2022/07/11 09:35:27;;;;;;;383.95;364.13;;;;;;;21.48;51.24;97307.91;5072822;28;20204;-61
2022/07/11 09:37:53;;;;;;;406.67;386.05;;;;;;;21.63;51.09;97314.94;5054845;28;20504;-62
2022/07/11 09:40:20;;;;;;;328.35;311.77;;;;;;;21.48;50.51;97314.06;5085760;28;20188;-63
2022/07/11 09:45:13;;;;;;;197.82;187.65;;;;;;;22.00;49.81;97320.44;5074497;28;20232;-61
2022/07/11 09:47:49;;;;;;;205.32;194.80;;;;;;;22.25;48.98;97320.09;5093625;28;20191;-62
2022/07/11 09:50:26;;;;;;;329.35;312.63;;;;;;;22.84;46.26;97317.91;5076630;28;20164;-60
2022/07/11 09:53:14;;;;;;;278.38;264.27;;;;;;;22.14;47.80;97325.84;5072815;28;20211;-56
2022/07/11 09:55:44;;;;;;;525.63;497.80;;;;;;;22.24;48.08;97323.81;5073128;28;20673;-62
2022/07/11 09:58:11;;;;;;;422.73;398.17;;;;;;;22.36;48.53;97321.53;5072373;28;20623;-62
2022/07/11 10:00:38;;;;;;;512.75;483.65;;;;;;;22.26;48.74;97319.00;5071111;28;20185;-61
2022/07/11 10:03:09;;;;;;;558.78;526.72;;;;;;;21.83;50.65;97312.88;5072007;28;20235;-61
2022/07/11 10:05:35;;;;;;;535.70;505.00;;;;;;;22.13;49.93;97314.38;5072208;28;20212;-61
2022/07/11 10:08:03;;;;;;;546.78;516.97;;;;;;;22.28;48.54;97313.38;5072101;28;20177;-61
2022/07/11 10:10:30;;;;;;;579.17;545.78;;;;;;;22.55;48.74;97316.19;5072431;28;20225;-62
2022/07/11 10:12:56;;;;;;;411.20;389.13;;;;;;;22.52;47.76;97316.75;5071633;28;20201;-62
2022/07/11 10:15:36;;;;;;;581.08;549.10;;;;;;;22.58;48.69;97325.50;5071800;28;20170;-61
2022/07/11 10:18:02;;;;;;;564.47;533.45;;;;;;;22.31;48.86;97320.81;5072140;28;20207;-59
2022/07/11 10:21:01;;;;;;;338.70;320.50;;;;;;;22.12;48.80;97326.16;5071868;28;20252;-62
2022/07/11 10:23:50;;;;;;;360.48;340.98;;;;;;;22.63;48.39;97323.53;5079582;28;20192;-60
2022/07/11 10:26:35;;;;;;;208.48;197.80;;;;;;;22.62;46.79;97327.31;5092835;28;20638;-60
2022/07/11 10:29:22;;;;;;;128.60;122.25;;;;;;;22.32;47.21;97327.75;5052450;28;20173;-62
2022/07/11 10:32:04;;;;;;;112.88;107.25;;;;;;;23.13;45.16;97327.31;5052365;28;20193;-62
2022/07/11 10:34:30;;;;;;;112.47;106.78;;;;;;;23.75;44.02;97327.81;5052052;28;20708;-61
2022/07/11 10:37:01;;;;;;;94.85;90.10;;;;;;;22.60;47.87;97318.78;5052125;28;20276;-62
2022/07/11 10:39:29;;;;;;;68.00;64.40;;;;;;;22.29;48.78;97320.31;5046225;28;20185;-60
2022/07/11 10:41:56;;;;;;;72.30;68.47;;;;;;;22.37;48.73;97311.63;5092089;28;20561;-61
2022/07/11 10:44:23;;;;;;;75.93;71.70;;;;;;;22.17;48.52;97315.41;5076878;28;20225;-61
2022/07/11 10:46:48;;;;;;;90.03;85.55;;;;;;;22.28;48.04;97311.50;5086227;28;20172;-62
2022/07/11 10:49:14;;;;;;;74.72;70.88;;;;;;;21.31;49.77;97315.56;5091399;28;20206;-61
2022/07/11 10:52:05;;;;;;;80.50;76.50;;;;;;;22.23;48.57;97316.91;5072409;28;20216;-64
2022/07/11 10:54:42;;;;;;;99.05;94.05;;;;;;;22.62;47.92;97313.94;5071801;28;20244;-63
2022/07/11 10:57:32;;;;;;;95.18;90.40;;;;;;;23.00;47.30;97316.59;5070746;28;20545;-60
2022/07/11 10:59:59;;;;;;;84.65;80.32;;;;;;;23.31;46.22;97322.19;5070954;28;20761;-60
2022/07/11 11:02:28;;;;;;;86.00;81.72;;;;;;;23.05;46.03;97329.88;5071432;28;20307;-57
2022/07/11 11:04:59;;;;;;;72.38;68.72;;;;;;;22.96;45.96;97321.69;5052618;28;20181;-64
2022/07/11 11:07:39;;;;;;;66.75;63.10;;;;;;;23.98;45.17;97320.66;5071376;28;20181;-63
2022/07/11 11:10:33;;;;;;;105.90;100.65;;;;;;;23.48;45.67;97325.13;5071126;28;20533;-59
2022/07/11 11:13:09;;;;;;;105.30;99.95;;;;;;;23.67;45.70;97317.81;5059293;28;20221;-62
2022/07/11 11:15:39;;;;;;;93.50;88.97;;;;;;;23.03;46.92;97316.78;5071285;28;20306;-59
2022/07/11 11:18:25;;;;;;;111.97;106.60;;;;;;;22.71;48.50;97317.56;5070762;28;20175;-60
2022/07/11 11:21:00;;;;;;;152.98;145.95;;;;;;;23.46;46.99;97319.28;5070024;28;20558;-62
2022/07/11 11:23:41;;;;;;;114.68;109.32;;;;;;;23.63;46.06;97319.47;5071165;28;20176;-61
2022/07/11 11:26:17;;;;;;;138.10;131.63;;;;;;;23.01;47.52;97321.66;5070799;28;20574;-60
2022/07/11 11:29:06;;;;;;;136.40;130.00;;;;;;;23.40;45.95;97320.44;5066098;28;20264;-61